Time;durP1;ratioP1;P1;durP2;ratioP2;P2;SDS_P1;SDS_P2;PMS_P1;PMS_P2;Temp;Humidity;BMP_temperature;BMP_pressure;BME280_temperature;BME280_humidity;BME280_pressure;Samples;Min_cycle;Max_cycle;Signal;HPM_P1;HPM_P2
2023/03/08 00:01:25;;;;;;;2.50;1.13;;;25.80;54.10;;;;;;5141958;23;20035;-42
2023/03/08 00:03:52;;;;;;;2.13;1.00;;;25.80;53.90;;;;;;5141559;23;20439;-45
2023/03/08 00:06:15;;;;;;;1.80;1.00;;;25.80;53.90;;;;;;5143188;23;20020;-41
2023/03/08 00:08:38;;;;;;;1.13;0.85;;;25.80;53.90;;;;;;5142740;23;20455;-42
2023/03/08 00:11:04;;;;;;;0.88;0.75;;;25.80;53.70;;;;;;5142280;23;20020;-41
2023/03/08 00:13:26;;;;;;;1.25;1.02;;;25.90;53.80;;;;;;5142501;23;20087;-43
2023/03/08 00:15:49;;;;;;;1.60;0.90;;;25.80;53.80;;;;;;5141767;23;20023;-43
2023/03/08 00:18:12;;;;;;;2.63;1.05;;;25.90;53.60;;;;;;5143978;23;20016;-41
2023/03/08 00:20:34;;;;;;;1.40;0.80;;;25.90;53.70;;;;;;5144158;23;20032;-45
2023/03/08 00:22:56;;;;;;;2.22;1.00;;;25.90;53.60;;;;;;5145429;23;20408;-45
2023/03/08 00:25:19;;;;;;;1.92;1.02;;;25.90;53.50;;;;;;5143125;23;20016;-42
2023/03/08 00:27:42;;;;;;;1.23;0.90;;;25.80;53.50;;;;;;5143793;23;20009;-43
2023/03/08 00:30:05;;;;;;;1.60;0.90;;;25.90;53.50;;;;;;5145009;23;20019;-42
2023/03/08 00:32:28;;;;;;;1.70;0.93;;;25.90;53.40;;;;;;5137090;23;20088;-42
2023/03/08 00:34:51;;;;;;;1.42;0.93;;;25.90;53.40;;;;;;5136961;23;20087;-43
2023/03/08 00:37:14;;;;;;;1.13;0.67;;;25.90;53.30;;;;;;5143954;23;20051;-45
2023/03/08 00:39:37;;;;;;;1.83;0.97;;;25.90;53.60;;;;;;5142850;23;20407;-46
2023/03/08 00:41:59;;;;;;;1.73;0.90;;;25.90;53.20;;;;;;5143184;23;20021;-47
2023/03/08 00:44:21;;;;;;;1.48;0.90;;;25.90;53.20;;;;;;5136764;23;20128;-42
2023/03/08 00:46:44;;;;;;;2.08;1.10;;;25.90;53.10;;;;;;5145009;23;20024;-46
2023/03/08 00:49:06;;;;;;;1.88;0.80;;;26.00;53.10;;;;;;5144529;23;20047;-43
2023/03/08 00:51:29;;;;;;;2.63;0.90;;;26.00;53.10;;;;;;5143167;23;20017;-43
2023/03/08 00:53:51;;;;;;;1.15;0.70;;;26.00;53.00;;;;;;5143233;23;20104;-41
2023/03/08 00:56:14;;;;;;;1.58;0.80;;;25.90;52.90;;;;;;5143262;23;20085;-42
2023/03/08 00:58:38;;;;;;;1.85;0.95;;;26.00;53.00;;;;;;5136156;23;20009;-42
2023/03/08 01:01:00;;;;;;;1.75;0.68;;;26.00;52.90;;;;;;5132291;23;20032;-42
2023/03/08 01:03:24;;;;;;;2.35;0.95;;;26.00;53.30;;;;;;5141987;23;20100;-43
2023/03/08 01:05:49;;;;;;;1.13;0.68;;;26.00;52.80;;;;;;5144472;23;20073;-43
2023/03/08 01:08:12;;;;;;;1.55;0.60;;;26.00;52.70;;;;;;5144123;23;20017;-43
2023/03/08 01:10:35;;;;;;;1.33;0.70;;;26.00;52.70;;;;;;5144808;23;20019;-44
2023/03/08 01:12:57;;;;;;;1.35;0.50;;;26.00;52.70;;;;;;5143881;23;20069;-42
2023/03/08 01:15:20;;;;;;;2.08;0.93;;;26.00;52.60;;;;;;5142144;23;20044;-43
2023/03/08 01:17:42;;;;;;;2.70;0.93;;;26.00;52.60;;;;;;5144896;23;20020;-42
2023/03/08 01:20:06;;;;;;;1.80;0.93;;;26.10;52.60;;;;;;5144889;23;20734;-43
2023/03/08 01:22:28;;;;;;;1.52;0.85;;;26.10;53.10;;;;;;5144512;23;20028;-41
2023/03/08 01:24:51;;;;;;;1.23;0.80;;;26.10;52.50;;;;;;5143577;23;20055;-43
2023/03/08 01:27:15;;;;;;;1.15;0.70;;;26.10;52.40;;;;;;5143035;23;20020;-42
2023/03/08 01:29:37;;;;;;;1.00;0.55;;;26.10;52.60;;;;;;5134252;23;20013;-42
2023/03/08 01:31:59;;;;;;;1.45;0.70;;;26.10;52.30;;;;;;5144908;23;20426;-42
2023/03/08 01:34:22;;;;;;;1.45;0.75;;;26.10;52.20;;;;;;5143145;23;20146;-43
2023/03/08 01:36:44;;;;;;;1.50;0.77;;;26.10;52.40;;;;;;5142810;23;20021;-45
2023/03/08 01:39:07;;;;;;;1.15;0.80;;;26.20;52.40;;;;;;5144541;23;20017;-45
2023/03/08 01:41:31;;;;;;;1.02;0.50;;;26.20;52.30;;;;;;5144281;23;20115;-42
2023/03/08 01:43:54;;;;;;;1.17;0.60;;;26.20;52.50;;;;;;5143450;23;20013;-42
2023/03/08 01:46:34;;;;;;;1.07;0.63;;;26.20;52.40;;;;;;5143766;23;20019;-42
2023/03/08 01:49:17;;;;;;;0.73;0.57;;;26.20;52.20;;;;;;5143210;23;20021;-41
2023/03/08 01:51:45;;;;;;;1.33;0.60;;;26.20;52.80;;;;;;5143216;23;20021;-48
2023/03/08 01:54:36;;;;;;;1.67;0.68;;;26.30;52.20;;;;;;5141462;23;20013;-45
2023/03/08 01:57:13;;;;;;;1.08;0.68;;;26.30;52.20;;;;;;5144926;23;20096;-47
2023/03/08 01:59:35;;;;;;;1.08;0.50;;;26.30;51.90;;;;;;5142956;23;20020;-42
2023/03/08 02:01:58;;;;;;;0.52;0.30;;;26.30;52.00;;;;;;5143952;23;20453;-41
2023/03/08 02:04:21;;;;;;;0.80;0.50;;;26.30;51.80;;;;;;5144650;23;20140;-45
2023/03/08 02:06:44;;;;;;;1.27;0.57;;;26.30;51.80;;;;;;5142577;23;20597;-41
2023/03/08 02:09:06;;;;;;;1.13;0.57;;;26.30;51.80;;;;;;5134385;23;20462;-45
2023/03/08 02:11:29;;;;;;;1.27;0.77;;;26.40;51.70;;;;;;5144620;23;20087;-45
2023/03/08 02:13:54;;;;;;;1.27;0.60;;;26.40;51.70;;;;;;5142995;23;20013;-43
2023/03/08 02:16:19;;;;;;;1.20;0.57;;;26.40;51.70;;;;;;5142239;23;20023;-42
2023/03/08 02:18:56;;;;;;;1.70;0.65;;;26.40;51.50;;;;;;5134839;23;20346;-48
2023/03/08 02:21:19;;;;;;;1.48;0.70;;;26.40;51.60;;;;;;5143217;23;20028;-48
2023/03/08 02:23:41;;;;;;;1.08;0.47;;;26.40;51.30;;;;;;5143455;23;20059;-44
2023/03/08 02:26:05;;;;;;;1.30;0.70;;;26.50;51.40;;;;;;5142627;23;20203;-41
2023/03/08 02:28:29;;;;;;;3.33;0.98;;;26.50;51.30;;;;;;5141689;23;20024;-48
2023/03/08 02:30:52;;;;;;;1.48;0.60;;;26.50;51.20;;;;;;5143614;23;20397;-43
2023/03/08 02:33:15;;;;;;;0.80;0.40;;;26.50;51.30;;;;;;5143294;23;20047;-43
2023/03/08 02:35:41;;;;;;;1.67;0.80;;;26.50;51.10;;;;;;5144656;23;20021;-44
2023/03/08 02:38:03;;;;;;;0.68;0.50;;;26.60;51.10;;;;;;5136199;23;20009;-42
2023/03/08 02:40:26;;;;;;;1.70;0.68;;;26.60;51.10;;;;;;5142140;23;20020;-45
2023/03/08 02:42:48;;;;;;;0.75;0.50;;;26.60;51.10;;;;;;5143821;23;20020;-44
2023/03/08 02:45:11;;;;;;;1.20;0.60;;;26.60;51.00;;;;;;5143310;23;20103;-43
2023/03/08 02:47:33;;;;;;;1.85;0.57;;;26.60;50.90;;;;;;5142071;23;20043;-44
2023/03/08 02:49:56;;;;;;;1.35;0.88;;;26.70;50.90;;;;;;5144731;23;20350;-43
2023/03/08 02:52:18;;;;;;;1.35;0.47;;;26.70;50.80;;;;;;5143461;23;20020;-42
2023/03/08 02:54:41;;;;;;;0.70;0.50;;;26.70;50.80;;;;;;5142317;23;20535;-46
2023/03/08 02:57:03;;;;;;;0.95;0.50;;;26.70;50.70;;;;;;5142511;23;20028;-45
2023/03/08 02:59:26;;;;;;;0.77;0.50;;;26.70;50.70;;;;;;5143793;23;20443;-45
2023/03/08 03:01:48;;;;;;;0.93;0.55;;;26.80;50.70;;;;;;5142501;23;20470;-45
2023/03/08 03:04:10;;;;;;;1.30;0.60;;;26.80;50.70;;;;;;5142329;23;20027;-47
2023/03/08 03:06:33;;;;;;;1.00;0.63;;;26.80;50.60;;;;;;5143692;23;20430;-46
2023/03/08 03:08:55;;;;;;;0.68;0.43;;;26.80;50.60;;;;;;5143431;23;20069;-49
2023/03/08 03:11:20;;;;;;;1.35;0.73;;;26.90;50.60;;;;;;5134580;23;20021;-42
2023/03/08 03:13:44;;;;;;;1.42;0.40;;;26.90;50.60;;;;;;5143330;23;20012;-46
2023/03/08 03:16:12;;;;;;;2.10;0.70;;;26.90;50.60;;;;;;5133043;23;20020;-43
2023/03/08 03:18:34;;;;;;;0.85;0.50;;;26.90;50.50;;;;;;5130384;23;20328;-46
2023/03/08 03:21:06;;;;;;;1.08;0.50;;;26.90;50.40;;;;;;5142029;23;20448;-43
2023/03/08 03:23:29;;;;;;;0.73;0.40;;;27.00;50.50;;;;;;5143201;23;20040;-42
2023/03/08 03:25:52;;;;;;;1.10;0.47;;;27.00;50.30;;;;;;5143878;23;20119;-45
2023/03/08 03:28:14;;;;;;;1.70;0.70;;;27.10;50.50;;;;;;5143134;23;20019;-43
2023/03/08 03:30:38;;;;;;;1.23;0.60;;;27.10;50.30;;;;;;5142771;23;20588;-44
2023/03/08 03:33:01;;;;;;;0.45;0.45;;;27.10;50.30;;;;;;5144427;23;20458;-44
2023/03/08 03:35:23;;;;;;;1.13;0.50;;;27.10;50.10;;;;;;5133866;23;20456;-44
2023/03/08 03:37:45;;;;;;;0.85;0.50;;;27.20;50.30;;;;;;5134898;23;20096;-47
2023/03/08 03:40:10;;;;;;;1.45;0.60;;;27.20;50.30;;;;;;5143253;23;20021;-46
2023/03/08 03:42:32;;;;;;;2.35;0.95;;;27.20;50.10;;;;;;5138417;23;20248;-42
2023/03/08 03:44:55;;;;;;;1.63;0.50;;;27.30;50.10;;;;;;5137427;23;20021;-42
2023/03/08 03:47:17;;;;;;;3.33;0.90;;;27.30;50.00;;;;;;5137799;23;20659;-44
2023/03/08 03:49:39;;;;;;;1.48;0.82;;;27.30;49.80;;;;;;5139566;23;20079;-44
2023/03/08 03:52:02;;;;;;;1.42;0.68;;;27.40;49.60;;;;;;5139193;23;20016;-44
2023/03/08 03:54:24;;;;;;;3.08;0.90;;;27.40;49.40;;;;;;5138287;23;20079;-43
2023/03/08 03:56:47;;;;;;;2.80;0.90;;;27.40;49.30;;;;;;5139241;23;20012;-43
2023/03/08 03:59:09;;;;;;;2.20;0.80;;;27.50;49.40;;;;;;5139943;23;20020;-45
2023/03/08 04:01:32;;;;;;;2.33;0.73;;;27.50;49.10;;;;;;5140551;23;20028;-44
2023/03/08 04:03:56;;;;;;;2.95;0.82;;;27.60;49.10;;;;;;5127472;23;20013;-45
2023/03/08 04:06:20;;;;;;;3.13;1.13;;;27.60;49.10;;;;;;5140548;23;20039;-48
2023/03/08 04:08:42;;;;;;;1.88;1.00;;;27.80;48.90;;;;;;5138737;23;20459;-43
2023/03/08 04:11:05;;;;;;;1.42;1.00;;;27.80;48.80;;;;;;5140504;23;20423;-42
2023/03/08 04:13:27;;;;;;;2.05;0.98;;;27.90;48.80;;;;;;5131773;23;20020;-45
2023/03/08 04:15:50;;;;;;;2.40;1.05;;;27.90;48.80;;;;;;5138021;23;20009;-45
2023/03/08 04:18:12;;;;;;;3.55;1.10;;;28.00;48.70;;;;;;5139851;23;20019;-47
2023/03/08 04:20:34;;;;;;;3.85;1.20;;;28.10;48.70;;;;;;5140014;23;20024;-43
2023/03/08 04:22:57;;;;;;;2.60;1.20;;;28.20;48.50;;;;;;5140838;23;20016;-44
2023/03/08 04:25:19;;;;;;;4.20;1.42;;;28.20;48.40;;;;;;5138358;23;20447;-42
2023/03/08 04:27:42;;;;;;;2.70;1.30;;;28.30;48.40;;;;;;5139062;23;20024;-48
2023/03/08 04:30:04;;;;;;;3.83;1.58;;;28.30;48.50;;;;;;5138287;23;20016;-50
2023/03/08 04:32:27;;;;;;;2.97;1.23;;;28.30;48.20;;;;;;5130492;23;20021;-45
2023/03/08 04:34:49;;;;;;;3.47;1.35;;;28.40;48.20;;;;;;5139078;23;20131;-42
2023/03/08 04:37:12;;;;;;;4.95;1.80;;;28.50;48.20;;;;;;5139034;23;20020;-46
2023/03/08 04:39:34;;;;;;;3.80;1.60;;;28.50;48.00;;;;;;5138582;23;20532;-43
2023/03/08 04:41:57;;;;;;;3.78;1.75;;;28.60;48.00;;;;;;5139858;23;20278;-42
2023/03/08 04:44:19;;;;;;;6.10;1.67;;;28.60;47.80;;;;;;5138294;23;20466;-44
2023/03/08 04:46:42;;;;;;;4.28;1.70;;;28.80;47.70;;;;;;5130861;23;20048;-47
2023/03/08 04:49:04;;;;;;;2.67;1.13;;;28.80;47.60;;;;;;5130047;23;20051;-44
2023/03/08 04:51:27;;;;;;;3.15;1.63;;;28.80;47.60;;;;;;5137714;23;20024;-47
2023/03/08 04:53:49;;;;;;;4.53;1.10;;;28.80;47.70;;;;;;5139585;23;20508;-46
2023/03/08 04:56:13;;;;;;;4.05;1.92;;;28.90;47.90;;;;;;5138868;23;20017;-42
2023/03/08 04:58:36;;;;;;;3.30;1.50;;;28.70;47.90;;;;;;5140216;23;20023;-42
2023/03/08 05:00:58;;;;;;;3.08;1.60;;;28.40;48.10;;;;;;5139695;23;20032;-42
2023/03/08 05:03:21;;;;;;;2.95;1.95;;;28.20;47.80;;;;;;5129918;23;20016;-44
2023/03/08 05:05:48;;;;;;;3.22;1.60;;;28.00;48.50;;;;;;5127510;23;20020;-47
2023/03/08 05:08:11;;;;;;;2.50;1.70;;;27.70;48.40;;;;;;5139901;23;20316;-47
2023/03/08 05:10:33;;;;;;;3.15;1.50;;;27.60;47.80;;;;;;5140675;23;20463;-46
2023/03/08 05:12:56;;;;;;;3.13;1.65;;;27.50;47.40;;;;;;5140336;23;20012;-47
2023/03/08 05:15:18;;;;;;;2.80;1.50;;;27.60;47.50;;;;;;5131666;23;20099;-47
2023/03/08 05:17:41;;;;;;;2.92;1.48;;;27.60;47.60;;;;;;5131287;23;20043;-45
2023/03/08 05:20:03;;;;;;;3.42;1.60;;;27.70;48.60;;;;;;5138917;23;20084;-44
2023/03/08 05:22:26;;;;;;;3.67;1.58;;;27.70;48.50;;;;;;5139260;23;20650;-48
2023/03/08 05:24:49;;;;;;;2.38;1.33;;;27.60;48.90;;;;;;5138362;23;20025;-44
2023/03/08 05:27:11;;;;;;;;;;;27.50;47.90;;;;;;5140729;23;20541;-45
2023/03/08 05:29:36;;;;;;;2.60;1.23;;;27.40;48.90;;;;;;5137245;23;19990;-44
2023/03/08 05:31:59;;;;;;;2.92;1.58;;;27.30;47.00;;;;;;5140341;23;20017;-46
2023/03/08 05:34:22;;;;;;;2.92;1.50;;;27.40;47.00;;;;;;5127468;23;20583;-46
2023/03/08 05:36:44;;;;;;;3.83;1.35;;;27.50;47.10;;;;;;5139767;23;20060;-47
2023/03/08 05:39:06;;;;;;;2.03;1.20;;;27.60;47.20;;;;;;5137691;23;20023;-44
2023/03/08 05:41:29;;;;;;;2.28;1.15;;;27.60;48.10;;;;;;5138209;23;20038;-49
2023/03/08 05:43:51;;;;;;;2.28;1.17;;;27.50;48.00;;;;;;5139150;23;20067;-43
2023/03/08 05:46:16;;;;;;;2.33;1.20;;;27.30;48.50;;;;;;5140037;23;20019;-46
2023/03/08 05:48:39;;;;;;;1.80;1.10;;;27.10;48.90;;;;;;5139047;23;20747;-48
2023/03/08 05:51:20;;;;;;;3.13;1.30;;;26.90;48.20;;;;;;5139689;23;20016;-45
2023/03/08 05:53:43;;;;;;;2.53;1.30;;;26.80;47.90;;;;;;5138650;23;20017;-46
2023/03/08 05:56:14;;;;;;;3.60;1.50;;;26.80;47.70;;;;;;5138614;23;20099;-45
2023/03/08 05:58:37;;;;;;;2.30;1.20;;;26.80;47.80;;;;;;5138197;23;20044;-46
2023/03/08 06:01:00;;;;;;;2.23;1.00;;;26.80;47.80;;;;;;5137677;23;20078;-46
2023/03/08 06:03:22;;;;;;;1.98;1.13;;;26.90;48.80;;;;;;5139315;23;20020;-44
2023/03/08 06:05:44;;;;;;;2.20;1.15;;;26.80;48.60;;;;;;5137512;23;20114;-46
2023/03/08 06:08:07;;;;;;;1.73;1.02;;;26.70;48.30;;;;;;5137815;23;20012;-44
2023/03/08 06:10:29;;;;;;;1.85;1.13;;;26.60;48.30;;;;;;5137973;23;20430;-46
2023/03/08 06:12:52;;;;;;;2.72;1.02;;;26.50;48.60;;;;;;5139393;23;20572;-44
2023/03/08 06:15:14;;;;;;;1.90;1.20;;;26.40;47.80;;;;;;5140669;23;20103;-48
2023/03/08 06:17:37;;;;;;;3.53;1.15;;;26.50;48.00;;;;;;5133162;23;20009;-42
2023/03/08 06:19:59;;;;;;;2.30;1.30;;;26.70;47.90;;;;;;5143838;23;20035;-44
2023/03/08 06:22:21;;;;;;;2.15;1.25;;;26.90;47.70;;;;;;5144229;23;20032;-48
2023/03/08 06:24:48;;;;;;;1.65;0.93;;;26.90;48.30;;;;;;5142407;23;20044;-46
2023/03/08 06:27:10;;;;;;;1.58;0.98;;;26.80;48.10;;;;;;5143577;23;20023;-43
2023/03/08 06:29:33;;;;;;;2.97;1.08;;;26.70;48.10;;;;;;5142532;23;20022;-44
2023/03/08 06:31:55;;;;;;;1.70;0.98;;;26.50;47.70;;;;;;5143235;23;20091;-44
2023/03/08 06:34:18;;;;;;;1.90;1.05;;;26.50;47.00;;;;;;5144051;23;20208;-42
2023/03/08 06:36:41;;;;;;;2.38;1.15;;;26.60;47.20;;;;;;5144427;23;20020;-44
2023/03/08 06:39:05;;;;;;;2.97;1.10;;;26.60;47.30;;;;;;5142494;23;20021;-41
2023/03/08 06:41:29;;;;;;;2.17;1.05;;;26.70;47.50;;;;;;5142726;23;20455;-43
2023/03/08 06:43:51;;;;;;;3.30;1.73;;;26.80;47.40;;;;;;5143807;23;20017;-42
2023/03/08 06:46:16;;;;;;;12.07;5.05;;;27.00;47.90;;;;;;5141499;23;20387;-42
2023/03/08 06:48:39;;;;;;;13.93;5.82;;;26.90;46.60;;;;;;5143214;23;20119;-42
2023/03/08 06:51:02;;;;;;;15.77;6.43;;;26.70;46.80;;;;;;5141610;23;20028;-42
2023/03/08 06:53:25;;;;;;;18.90;7.50;;;26.60;46.60;;;;;;5142100;23;20484;-42
2023/03/08 06:55:48;;;;;;;17.80;6.87;;;26.60;47.20;;;;;;5142570;23;20020;-42
2023/03/08 06:58:10;;;;;;;22.17;7.50;;;26.70;46.90;;;;;;5132348;23;20506;-46
2023/03/08 07:00:33;;;;;;;19.08;6.80;;;26.90;47.10;;;;;;5142473;23;20016;-41
2023/03/08 07:02:55;;;;;;;20.35;6.85;;;27.00;47.10;;;;;;5142720;23;20020;-49
2023/03/08 07:05:18;;;;;;;18.70;7.78;;;27.20;47.10;;;;;;5142415;23;20016;-46
2023/03/08 07:07:43;;;;;;;16.75;7.68;;;27.30;48.00;;;;;;5134948;23;20025;-48
2023/03/08 07:10:06;;;;;;;12.83;6.63;;;27.20;47.10;;;;;;5144175;23;20016;-47
2023/03/08 07:12:31;;;;;;;12.02;5.72;;;27.00;46.70;;;;;;5142745;23;20050;-45
2023/03/08 07:14:53;;;;;;;12.25;6.25;;;26.80;46.40;;;;;;5134684;23;20101;-44
2023/03/08 07:17:16;;;;;;;13.45;6.47;;;26.70;46.90;;;;;;5135621;23;20549;-44
2023/03/08 07:19:38;;;;;;;14.52;5.35;;;26.70;47.20;;;;;;5136098;23;20435;-45
2023/03/08 07:22:00;;;;;;;12.65;5.68;;;26.70;47.80;;;;;;5141391;23;20028;-45
2023/03/08 07:24:23;;;;;;;14.32;4.78;;;26.80;48.10;;;;;;5143025;23;20013;-44
2023/03/08 07:26:45;;;;;;;14.60;5.43;;;26.90;48.40;;;;;;5141888;23;20131;-42
2023/03/08 07:29:08;;;;;;;11.23;4.97;;;27.00;49.80;;;;;;5144672;23;20078;-42
2023/03/08 07:31:31;;;;;;;8.90;4.28;;;26.90;48.80;;;;;;5143253;23;20504;-47
2023/03/08 07:33:54;;;;;;;8.75;4.07;;;26.70;48.60;;;;;;5143116;23;20424;-43
2023/03/08 07:36:16;;;;;;;7.85;3.78;;;26.60;50.80;;;;;;5143992;23;20044;-45
2023/03/08 07:38:38;;;;;;;7.75;3.08;;;26.50;54.40;;;;;;5136383;23;20016;-42
2023/03/08 07:41:01;;;;;;;6.78;3.40;;;26.40;54.20;;;;;;5143666;23;20040;-45
2023/03/08 07:43:24;;;;;;;8.02;3.65;;;26.40;53.60;;;;;;5140341;23;20446;-44
2023/03/08 07:45:46;;;;;;;6.25;2.92;;;26.50;53.20;;;;;;5143697;23;20017;-42
2023/03/08 07:48:08;;;;;;;9.35;3.05;;;26.50;52.80;;;;;;5142398;23;20016;-43
2023/03/08 07:50:31;;;;;;;8.38;3.33;;;26.60;52.70;;;;;;5143095;23;20016;-40
2023/03/08 07:52:53;;;;;;;6.90;2.85;;;26.60;53.10;;;;;;5140911;23;20017;-40
2023/03/08 07:55:16;;;;;;;8.43;3.28;;;26.50;52.50;;;;;;5140439;23;20104;-40
2023/03/08 07:57:39;;;;;;;7.00;2.75;;;26.40;51.50;;;;;;5133385;23;20116;-42
2023/03/08 08:00:06;;;;;;;5.93;2.45;;;26.30;51.40;;;;;;5141857;23;20406;-41
2023/03/08 08:02:29;;;;;;;5.05;2.40;;;26.10;50.70;;;;;;5134195;23;20418;-40
2023/03/08 08:04:51;;;;;;;4.63;1.90;;;26.10;50.30;;;;;;5141774;23;20020;-42
2023/03/08 08:07:15;;;;;;;5.45;2.20;;;26.10;50.60;;;;;;5141066;23;20012;-44
2023/03/08 08:09:38;;;;;;;4.68;2.70;;;26.10;51.10;;;;;;5130772;23;20383;-40
2023/03/08 08:12:00;;;;;;;4.20;1.92;;;26.10;51.20;;;;;;5143880;23;20017;-40
2023/03/08 08:14:23;;;;;;;3.80;2.30;;;26.20;51.50;;;;;;5143132;23;20027;-41
2023/03/08 08:16:45;;;;;;;4.15;2.13;;;26.20;51.40;;;;;;5141827;23;20016;-42
2023/03/08 08:19:11;;;;;;;2.97;1.52;;;26.10;50.70;;;;;;5142179;23;20017;-42
2023/03/08 08:21:36;;;;;;;2.80;1.65;;;26.00;50.30;;;;;;5142347;23;20052;-45
2023/03/08 08:24:00;;;;;;;7.18;2.20;;;25.90;49.70;;;;;;5141581;23;20431;-43
2023/03/08 08:26:22;;;;;;;;;;;25.80;50.70;;;;;;5134969;23;20016;-46
2023/03/08 08:28:47;;;;;;;3.75;1.60;;;25.80;51.00;;;;;;5142164;23;19969;-44
2023/03/08 08:31:14;;;;;;;5.75;1.98;;;25.80;51.50;;;;;;5144138;23;20012;-47
2023/03/08 08:33:37;;;;;;;3.70;1.75;;;25.80;52.10;;;;;;5137272;23;20016;-42
2023/03/08 08:36:00;;;;;;;3.50;1.70;;;25.90;51.50;;;;;;5144565;23;20020;-43
2023/03/08 08:38:23;;;;;;;3.27;1.77;;;25.90;51.50;;;;;;5143954;23;20273;-44
2023/03/08 08:40:45;;;;;;;3.78;1.83;;;26.00;52.00;;;;;;5133453;23;20446;-45
2023/03/08 08:43:08;;;;;;;2.40;1.67;;;25.90;50.90;;;;;;5143719;23;20047;-47
2023/03/08 08:45:30;;;;;;;3.58;1.40;;;25.70;50.20;;;;;;5143168;23;20017;-43
2023/03/08 08:47:53;;;;;;;5.10;2.05;;;25.70;50.40;;;;;;5141802;23;20091;-43
2023/03/08 08:50:15;;;;;;;4.80;1.42;;;25.60;50.80;;;;;;5141548;23;20343;-41
2023/03/08 08:52:38;;;;;;;8.05;1.95;;;25.60;51.10;;;;;;5139880;23;20123;-42
2023/03/08 08:55:00;;;;;;;4.80;1.63;;;25.60;51.50;;;;;;5143264;23;20179;-41
2023/03/08 08:57:23;;;;;;;3.55;1.52;;;25.60;51.70;;;;;;5140725;23;20013;-44
2023/03/08 08:59:46;;;;;;;4.60;1.50;;;25.70;52.00;;;;;;5141704;23;20018;-47
2023/03/08 09:02:11;;;;;;;4.65;1.42;;;25.70;52.20;;;;;;5140668;23;20472;-46
2023/03/08 09:04:34;;;;;;;3.38;1.50;;;25.70;52.40;;;;;;5141879;23;20013;-41
2023/03/08 09:06:56;;;;;;;4.13;1.40;;;25.80;53.20;;;;;;5125936;23;20017;-41
2023/03/08 09:09:19;;;;;;;2.53;1.13;;;25.70;51.20;;;;;;5136067;23;20815;-43
2023/03/08 09:11:41;;;;;;;2.08;1.20;;;25.60;50.50;;;;;;5135658;23;20451;-43
2023/03/08 09:14:04;;;;;;;2.53;0.98;;;25.40;50.80;;;;;;5135715;23;20375;-41
2023/03/08 09:16:33;;;;;;;2.53;1.20;;;25.40;51.30;;;;;;5138201;23;20027;-41
2023/03/08 09:18:57;;;;;;;2.13;1.15;;;25.40;51.70;;;;;;5136935;23;20019;-41
2023/03/08 09:21:20;;;;;;;2.97;1.20;;;25.50;52.00;;;;;;5134789;23;20126;-43
2023/03/08 09:23:43;;;;;;;3.55;1.15;;;25.50;52.20;;;;;;5134971;23;20297;-41
2023/03/08 09:26:06;;;;;;;2.15;0.93;;;25.60;52.50;;;;;;5124741;23;20479;-45
2023/03/08 09:28:29;;;;;;;2.55;1.10;;;25.70;52.70;;;;;;5137342;23;20008;-43
2023/03/08 09:30:52;;;;;;;2.60;1.02;;;25.70;52.80;;;;;;5137427;23;20055;-41
2023/03/08 09:33:15;;;;;;;2.63;1.10;;;25.70;53.90;;;;;;5127208;23;20453;-41
2023/03/08 09:35:37;;;;;;;4.73;1.30;;;25.70;51.90;;;;;;5136124;23;20453;-43
2023/03/08 09:38:00;;;;;;;2.38;1.17;;;25.60;50.90;;;;;;5134596;23;20101;-44
2023/03/08 09:40:28;;;;;;;2.17;1.30;;;25.50;51.10;;;;;;5135476;23;20405;-40
2023/03/08 09:42:51;;;;;;;1.80;0.93;;;25.40;51.40;;;;;;5135505;23;20334;-40
2023/03/08 09:45:28;;;;;;;3.22;1.20;;;25.40;51.70;;;;;;5135152;23;20098;-43
2023/03/08 09:48:26;;;;;;;4.40;1.30;;;25.50;51.80;;;;;;5133428;23;20471;-40
2023/03/08 09:51:02;;;;;;;7.07;1.17;;;25.50;52.30;;;;;;5123770;23;20021;-40
2023/03/08 09:53:50;;;;;;;4.82;0.75;;;25.60;53.30;;;;;;5134981;23;20410;-40
2023/03/08 09:56:18;;;;;;;1.75;0.82;;;25.60;52.70;;;;;;5135467;23;20024;-41
2023/03/08 09:59:08;;;;;;;3.47;1.20;;;25.70;53.70;;;;;;5133808;23;20017;-40
2023/03/08 10:01:38;;;;;;;1.33;0.93;;;25.70;51.90;;;;;;5137583;23;20024;-40
2023/03/08 10:04:18;;;;;;;3.35;1.40;;;25.60;51.40;;;;;;5133387;23;20031;-40
2023/03/08 10:07:05;;;;;;;5.93;1.38;;;25.40;51.40;;;;;;5140528;23;20425;-41
2023/03/08 10:09:35;;;;;;;2.97;1.08;;;25.50;51.80;;;;;;5137804;23;20013;-42
2023/03/08 10:12:17;;;;;;;4.35;1.20;;;25.50;52.10;;;;;;5132517;23;20013;-42
2023/03/08 10:14:44;;;;;;;4.95;1.55;;;25.60;52.40;;;;;;5141083;23;20021;-39
2023/03/08 10:17:16;;;;;;;22.15;2.90;;;25.60;52.70;;;;;;5130968;23;20020;-40
2023/03/08 10:20:12;;;;;;;4.47;1.52;;;25.70;53.40;;;;;;5142310;23;20104;-39
2023/03/08 10:22:38;;;;;;;4.07;1.25;;;25.70;51.90;;;;;;5133979;23;20836;-41
2023/03/08 10:25:23;;;;;;;7.72;1.70;;;25.50;51.20;;;;;;5133950;23;20020;-42
2023/03/08 10:27:50;;;;;;;4.15;1.55;;;25.40;51.50;;;;;;5138705;23;20406;-42
2023/03/08 10:30:20;;;;;;;4.43;1.63;;;25.40;52.20;;;;;;5139957;23;20023;-41
2023/03/08 10:32:44;;;;;;;5.30;1.40;;;25.50;52.70;;;;;;5141442;23;20328;-40
2023/03/08 10:35:07;;;;;;;2.33;0.85;;;25.60;52.80;;;;;;5141732;23;20020;-40
2023/03/08 10:37:33;;;;;;;3.65;1.17;;;25.60;52.90;;;;;;5139581;23;20084;-40
2023/03/08 10:39:58;;;;;;;7.13;1.40;;;25.70;53.00;;;;;;5140527;23;20277;-41
2023/03/08 10:42:28;;;;;;;16.40;1.92;;;25.70;53.90;;;;;;5141852;23;20104;-40
2023/03/08 10:45:04;;;;;;;12.57;2.00;;;25.70;52.30;;;;;;5140685;23;20411;-39
2023/03/08 10:47:33;;;;;;;8.40;1.83;;;25.60;51.60;;;;;;5140318;23;20023;-39
2023/03/08 10:50:16;;;;;;;14.50;2.03;;;25.50;51.50;;;;;;5140434;23;20324;-41
2023/03/08 10:52:39;;;;;;;4.60;1.17;;;25.40;52.00;;;;;;5141791;23;20012;-38
2023/03/08 10:55:09;;;;;;;9.27;1.25;;;25.50;52.30;;;;;;5141279;23;20078;-37
2023/03/08 10:57:35;;;;;;;5.40;1.38;;;25.60;52.50;;;;;;5140691;23;20016;-40
2023/03/08 11:00:13;;;;;;;4.97;1.42;;;25.60;52.70;;;;;;5140756;23;20354;-40
2023/03/08 11:02:35;;;;;;;7.10;1.50;;;25.70;52.80;;;;;;5142434;23;20035;-40
2023/03/08 11:04:59;;;;;;;4.22;1.42;;;25.70;54.00;;;;;;5143001;23;20012;-41
2023/03/08 11:07:28;;;;;;;4.00;1.08;;;25.70;57.90;;;;;;5141445;23;20176;-45
2023/03/08 11:09:51;;;;;;;6.00;1.05;;;25.70;57.30;;;;;;5141897;23;20071;-40
2023/03/08 11:12:26;;;;;;;4.22;1.70;;;25.70;57.20;;;;;;5141237;23;20012;-41
2023/03/08 11:14:48;;;;;;;4.13;1.10;;;25.70;56.80;;;;;;5134116;23;20341;-41
2023/03/08 11:17:23;;;;;;;5.97;1.40;;;25.80;56.30;;;;;;5140219;23;20024;-41
2023/03/08 11:19:59;;;;;;;4.07;1.30;;;25.90;56.10;;;;;;5140003;23;20020;-39
2023/03/08 11:22:39;;;;;;;3.25;0.80;;;25.90;55.80;;;;;;5129814;23;20029;-39
2023/03/08 11:25:26;;;;;;;1.00;0.57;;;26.00;55.70;;;;;;5140301;23;20051;-43
2023/03/08 11:27:57;;;;;;;2.60;1.08;;;26.00;55.50;;;;;;5141251;23;20032;-40
2023/03/08 11:30:22;;;;;;;8.00;0.90;;;26.00;55.40;;;;;;5131073;23;20028;-41
2023/03/08 11:33:25;;;;;;;2.38;0.70;;;26.10;55.40;;;;;;5133878;23;20017;-41
2023/03/08 11:36:05;;;;;;;1.55;0.68;;;26.10;55.30;;;;;;5139602;23;20344;-42
2023/03/08 11:38:30;;;;;;;1.45;0.75;;;26.10;55.20;;;;;;5139819;23;20446;-40
2023/03/08 11:41:14;;;;;;;1.70;0.80;;;26.20;56.00;;;;;;5139623;23;20020;-41
2023/03/08 11:43:36;;;;;;;3.47;1.00;;;26.20;55.10;;;;;;5141665;23;20382;-41
2023/03/08 11:46:16;;;;;;;6.00;0.75;;;26.20;55.10;;;;;;5141756;23;20016;-41
2023/03/08 11:48:51;;;;;;;2.80;1.13;;;26.20;55.00;;;;;;5141947;23;20344;-45
2023/03/08 11:52:05;;;;;;;1.77;0.63;;;26.20;55.00;;;;;;5140067;23;20039;-39
2023/03/08 11:54:36;;;;;;;1.17;0.60;;;26.30;55.00;;;;;;5130803;23;20047;-41
2023/03/08 11:57:02;;;;;;;1.67;0.70;;;26.30;55.00;;;;;;5141752;23;20344;-41
2023/03/08 11:59:34;;;;;;;2.13;0.80;;;26.30;55.00;;;;;;5141974;23;20016;-42
2023/03/08 12:02:06;;;;;;;0.77;0.60;;;26.30;55.00;;;;;;5139480;23;20028;-43
2023/03/08 12:04:52;;;;;;;3.38;1.17;;;26.30;54.90;;;;;;5132191;23;20060;-42
2023/03/08 12:07:38;;;;;;;2.80;0.90;;;26.30;55.00;;;;;;5138405;23;20044;-42
2023/03/08 12:10:24;;;;;;;4.05;0.70;;;26.40;54.90;;;;;;5140609;23;20336;-43
2023/03/08 12:13:11;;;;;;;2.03;0.80;;;26.40;54.90;;;;;;5141469;23;20017;-44
2023/03/08 12:16:20;;;;;;;2.35;0.63;;;26.40;54.70;;;;;;5142881;23;20070;-43
2023/03/08 12:18:51;;;;;;;4.05;1.08;;;26.40;54.70;;;;;;5123261;23;20016;-42
2023/03/08 12:21:29;;;;;;;1.90;0.63;;;26.50;54.70;;;;;;5140147;23;20024;-46
2023/03/08 12:24:17;;;;;;;1.52;0.60;;;26.50;54.70;;;;;;5142439;23;20093;-43
2023/03/08 12:26:51;;;;;;;5.57;1.30;;;26.50;54.60;;;;;;5132019;23;20047;-44
2023/03/08 12:29:21;;;;;;;22.55;2.83;;;26.50;54.50;;;;;;5139778;23;20016;-41
2023/03/08 12:31:47;;;;;;;2.70;0.80;;;26.50;54.30;;;;;;5131789;23;20052;-41
2023/03/08 12:34:34;;;;;;;3.00;0.50;;;26.50;54.30;;;;;;5136416;23;20013;-47
2023/03/08 12:36:57;;;;;;;4.18;1.02;;;26.60;54.30;;;;;;5133019;23;20038;-45
2023/03/08 12:39:32;;;;;;;8.45;1.40;;;26.50;54.20;;;;;;5133403;23;20070;-45